Sauk Centre, MN

9:02 PM CDT on June 22, 2017 (GMT -0500)
Sauk Centre

Weather History for KD39 - October, 2013

Change the Weather History Date:

Saturday, October 26, 2013

  Actual Average (KGHW) Record (KGHW)
Temperature  
Mean Temperature 35 °F -  
Max Temperature 42 °F 57 °F 82 °F (1955)
Min Temperature 26 °F 33 °F 19 °F (1980)
Degree Days  
Heating Degree Days 30    
Moisture  
Dew Point 27 °F    
Average Humidity 70    
Maximum Humidity 90    
Minimum Humidity 60    
Precipitation  
Precipitation 0.00 in - - ()
Sea Level Pressure  
Sea Level Pressure 30.04 in    
Wind  
Wind Speed 14 mph (WNW)    
Max Wind Speed 22 mph    
Max Gust Speed 28 mph    
Visibility 10 miles    
Events      
Averages and records for this station are not official NWS values.
T = Trace of Precipitation, MM = Missing Value Source: NWS Daily Summary

Daily Weather History Graph

Daily Weather History Graph

Search for Another Location

Airport or City:

Trip Planner

Search our weather history database for the weather conditions in past years. The results will help you decide how hot, cold, wet, or windy it might be!

Date:

Astronomy

Oct. 26, 2013 Rise Set
Actual Time 7:51 AM CDT 6:14 PM CDT
Civil Twilight 7:20 AM CDT 6:45 PM CDT
Nautical Twilight 6:46 AM CDT 7:20 PM CDT
Astronomical Twilight 6:11 AM CDT 7:54 PM CDT
Moon No Moon Rise 2:10 PM CDT (10/26)
Length of Visible Light 11h 24m
Length of Day
10h 23m
Waning Gibbous, 53% of the Moon is Illuminated
Oct 26
Waning Gibbous
Oct 26
Last Quarter
Nov 3
New
Nov 9
First Quarter
Nov 17
Full

Hourly Weather History & Observations

Time (CDT) Temp. Windchill Dew Point Humidity Pressure Visibility Wind Dir Wind Speed Gust Speed Precip Events Conditions
12:11 AM 43.9 °F 35.7 °F 31.6 °F 62% 29.86 in 10.0 mi NW 19.6 mph 27.6 mph N/A   Clear
12:30 AM 42.8 °F 36.2 °F 31.5 °F 64% 29.87 in 10.0 mi NW 12.7 mph 25.3 mph N/A   Clear
12:51 AM 41.2 °F 32.7 °F 28.8 °F 61% 29.87 in 10.0 mi NW 17.3 mph 23.0 mph N/A   Clear
1:11 AM 40.5 °F 32.8 °F 28.2 °F 62% 29.88 in 10.0 mi NW 13.8 mph - N/A   Clear
1:30 AM 39.0 °F 29.9 °F 28.6 °F 66% 29.88 in 10.0 mi NW 17.3 mph 21.9 mph N/A   Clear
1:51 AM 38.8 °F 30.4 °F 27.5 °F 64% 29.89 in 10.0 mi NW 15.0 mph 19.6 mph N/A   Clear
2:10 AM 37.9 °F 28.5 °F 27.5 °F 66% 29.90 in 10.0 mi NW 17.3 mph 20.7 mph N/A   Clear
2:30 AM 37.0 °F 29.3 °F 27.5 °F 68% 29.90 in 10.0 mi NW 11.5 mph - N/A   Clear
2:51 AM 36.0 °F 27.1 °F 27.5 °F 71% 29.92 in 10.0 mi NW 13.8 mph 21.9 mph N/A   Clear
3:10 AM 35.8 °F 26.9 °F 27.1 °F 71% 29.94 in 10.0 mi NW 13.8 mph 23.0 mph N/A   Clear
3:30 AM 35.6 °F 25.9 °F 27.5 °F 72% 29.94 in 10.0 mi NW 16.1 mph 23.0 mph N/A   Clear
3:51 AM 35.2 °F 25.8 °F 28.0 °F 75% 29.95 in 10.0 mi NW 15.0 mph 24.2 mph N/A   Scattered Clouds
4:10 AM 35.1 °F 25.2 °F 28.0 °F 76% 29.95 in 10.0 mi NW 16.1 mph 23.0 mph N/A   Scattered Clouds
4:30 AM 34.9 °F 24.9 °F 28.0 °F 76% 29.96 in 10.0 mi NW 16.1 mph - N/A   Clear
4:51 AM 34.5 °F 24.8 °F 27.9 °F 77% 29.97 in 10.0 mi NW 15.0 mph - N/A   Clear
5:10 AM 34.9 °F 25.7 °F 27.5 °F 74% 29.98 in 10.0 mi NW 13.8 mph - N/A   Clear
5:30 AM 34.9 °F 25.3 °F 27.3 °F 74% 29.99 in 10.0 mi NW 15.0 mph 20.7 mph N/A   Clear
5:51 AM 35.1 °F 25.9 °F 26.8 °F 72% 29.99 in 10.0 mi NW 13.8 mph 20.7 mph N/A   Clear
6:10 AM 35.1 °F 24.8 °F 26.6 °F 71% 30.00 in 10.0 mi NW 17.3 mph 21.9 mph N/A   Clear
6:30 AM 34.7 °F 25.9 °F 26.4 °F 72% 30.00 in 10.0 mi NW 12.7 mph - N/A   Clear
6:51 AM 32.9 °F 25.3 °F 26.6 °F 78% 30.02 in 10.0 mi WNW 9.2 mph - N/A   Clear
7:10 AM 32.4 °F 24.6 °F 27.1 °F 81% 30.02 in 10.0 mi WNW 9.2 mph - N/A   Clear
7:30 AM 32.2 °F 24.4 °F 27.0 °F 81% 30.03 in 10.0 mi WNW 9.2 mph - N/A   Clear
7:51 AM 32.0 °F 24.8 °F 26.6 °F 80% 30.04 in 10.0 mi WNW 8.1 mph - N/A   Clear
8:10 AM 32.0 °F 24.8 °F 26.6 °F 80% 30.04 in 10.0 mi WNW 8.1 mph - N/A   Clear
8:30 AM 32.4 °F 26.0 °F 27.1 °F 81% 30.05 in 10.0 mi WNW 6.9 mph - N/A   Clear
8:51 AM 33.6 °F 26.2 °F 27.1 °F 77% 30.06 in 10.0 mi WNW 9.2 mph - N/A   Clear
9:10 AM 35.2 °F 28.1 °F 27.5 °F 73% 30.07 in 10.0 mi WNW 9.2 mph 17.3 mph N/A   Clear
9:30 AM 36.5 °F 27.8 °F 27.7 °F 70% 30.08 in 10.0 mi WNW 13.8 mph 17.3 mph N/A   Scattered Clouds
9:51 AM 37.0 °F 29.3 °F 27.9 °F 69% 30.07 in 10.0 mi NW 11.5 mph - N/A   Mostly Cloudy
10:10 AM 37.6 °F 27.1 °F 27.7 °F 67% 30.08 in 10.0 mi NW 20.7 mph 26.5 mph N/A   Mostly Cloudy
10:31 AM 37.8 °F 28.0 °F 27.3 °F 66% 30.09 in 10.0 mi NW 18.4 mph 25.3 mph N/A   Mostly Cloudy
10:51 AM 38.8 °F 28.8 °F 27.7 °F 64% 30.09 in 10.0 mi NW 20.7 mph 26.5 mph N/A   Mostly Cloudy
11:10 AM 39.7 °F 29.7 °F 28.0 °F 63% 30.11 in 10.0 mi NW 21.9 mph 26.5 mph N/A   Scattered Clouds
11:31 AM 38.7 °F 28.3 °F 27.7 °F 65% 30.11 in 10.0 mi NW 21.9 mph 26.5 mph N/A   Mostly Cloudy
11:51 AM 39.6 °F 30.3 °F 27.9 °F 63% 30.11 in 10.0 mi NW 18.4 mph 26.5 mph N/A   Overcast
12:10 PM 40.1 °F 31.6 °F 27.9 °F 62% 30.12 in 10.0 mi NW 16.1 mph 24.2 mph N/A   Mostly Cloudy
12:31 PM 41.4 °F 34.3 °F 28.4 °F 60% 30.11 in 10.0 mi NW 12.7 mph 19.6 mph N/A   Scattered Clouds
12:51 PM 41.2 °F 33.4 °F 28.4 °F 60% 30.11 in 10.0 mi NW 15.0 mph 21.9 mph N/A   Scattered Clouds
1:10 PM 41.2 °F 33.7 °F 28.0 °F 60% 30.12 in 10.0 mi NW 13.8 mph 23.0 mph N/A   Clear
1:31 PM 41.0 °F 32.8 °F 28.9 °F 62% 30.12 in 10.0 mi NW 16.1 mph 24.2 mph N/A   Mostly Cloudy
1:51 PM 40.8 °F 32.6 °F 28.6 °F 62% 30.11 in 10.0 mi NW 16.1 mph 23.0 mph N/A   Overcast
2:10 PM 40.5 °F 31.2 °F 28.6 °F 63% 30.11 in 10.0 mi NW 19.6 mph 23.0 mph N/A   Overcast
2:31 PM 40.1 °F 32.4 °F 28.2 °F 63% 30.11 in 10.0 mi NW 13.8 mph 20.7 mph N/A   Overcast
2:51 PM 40.1 °F 32.0 °F 27.5 °F 61% 30.12 in 10.0 mi NW 15.0 mph 23.0 mph N/A   Overcast
3:10 PM 40.3 °F 32.6 °F 27.5 °F 60% 30.11 in 10.0 mi NW 13.8 mph - N/A   Overcast
3:31 PM 40.1 °F 33.2 °F 27.5 °F 61% 30.11 in 10.0 mi NW 11.5 mph 19.6 mph N/A   Overcast
3:50 PM 40.3 °F 33.0 °F 27.7 °F 61% 30.10 in 10.0 mi WNW 12.7 mph - N/A   Overcast
4:10 PM 40.3 °F 32.6 °F 27.9 °F 61% 30.11 in 10.0 mi WNW 13.8 mph - N/A   Overcast
4:31 PM 40.1 °F 33.6 °F 28.0 °F 62% 30.11 in 10.0 mi WNW 10.4 mph - N/A   Overcast
4:50 PM 40.1 °F 32.7 °F 28.0 °F 62% 30.11 in 10.0 mi NW 12.7 mph 16.1 mph N/A   Overcast
5:11 PM 39.7 °F 32.7 °F 27.3 °F 61% 30.10 in 10.0 mi NW 11.5 mph - N/A   Overcast
5:31 PM 39.4 °F 32.3 °F 26.4 °F 60% 30.10 in 10.0 mi NW 11.5 mph - N/A   Overcast
5:50 PM 39.2 °F 32.5 °F 26.8 °F 61% 30.09 in 10.0 mi NW 10.4 mph - N/A   Overcast
6:11 PM 38.7 °F 32.4 °F 26.2 °F 61% 30.09 in 10.0 mi WNW 9.2 mph - N/A   Overcast
6:31 PM 38.5 °F 32.7 °F 26.6 °F 62% 30.09 in 10.0 mi WNW 8.1 mph - N/A   Overcast
6:50 PM 38.3 °F 31.9 °F 26.6 °F 63% 30.10 in 10.0 mi WNW 9.2 mph - N/A   Overcast
7:11 PM 38.3 °F 31.9 °F 26.8 °F 63% 30.11 in 10.0 mi WNW 9.2 mph - N/A   Overcast
7:31 PM 37.8 °F 32.5 °F 27.1 °F 66% 30.10 in 10.0 mi WNW 6.9 mph - N/A   Overcast
7:50 PM 37.6 °F 35.1 °F 27.0 °F 66% 30.08 in 10.0 mi West 3.5 mph - N/A   Overcast
8:11 PM 36.5 °F 32.7 °F 27.9 °F 71% 30.08 in 10.0 mi WSW 4.6 mph - N/A   Overcast
8:31 PM 36.1 °F 31.4 °F 28.2 °F 73% 30.08 in 10.0 mi West 5.8 mph - N/A   Overcast
8:50 PM 34.9 °F 30.8 °F 27.3 °F 74% 30.07 in 10.0 mi West 4.6 mph - N/A   Mostly Cloudy
9:11 PM 34.0 °F 29.8 °F 26.2 °F 73% 30.05 in 10.0 mi West 4.6 mph - N/A   Clear
9:31 PM 33.3 °F - 26.2 °F 75% 30.04 in 10.0 mi Calm Calm - N/A   Clear
9:50 PM 30.6 °F 27.1 °F 25.5 °F 82% 30.04 in 10.0 mi SSW 3.5 mph - N/A   Clear
10:11 PM 29.5 °F - 25.7 °F 86% 30.04 in 10.0 mi Calm Calm - N/A   Clear
10:30 PM 28.4 °F 24.6 °F 25.0 °F 87% 30.03 in 10.0 mi South 3.5 mph - N/A   Clear
10:50 PM 29.1 °F - 25.3 °F 86% 30.03 in 10.0 mi Calm Calm - N/A   Clear
11:11 PM 27.7 °F 23.8 °F 24.6 °F 88% 30.02 in 10.0 mi South 3.5 mph - N/A   Clear
11:30 PM 27.5 °F 23.6 °F 24.8 °F 90% 30.02 in 10.0 mi South 3.5 mph - N/A   Clear
11:50 PM 26.4 °F 20.9 °F 23.9 °F 90% 29.99 in 10.0 mi South 4.6 mph - N/A   Clear